createdAt,value
2019-01-10T00:00:57.274Z,2.50
2019-01-10T00:03:47.027Z,2.27
2019-01-10T00:06:36.463Z,1.97
2019-01-10T00:09:25.901Z,2.00
2019-01-10T00:12:15.763Z,2.27
2019-01-10T00:15:07.955Z,2.50
2019-01-10T00:17:57.381Z,1.93
2019-01-10T00:20:47.116Z,2.10
2019-01-10T00:23:36.882Z,2.30
2019-01-10T00:26:07.299Z,2.53
2019-01-10T00:28:56.755Z,2.40
2019-01-10T00:31:46.211Z,2.50
2019-01-10T00:34:35.690Z,2.00
2019-01-10T00:37:25.179Z,2.30
2019-01-10T00:40:54.645Z,2.33
2019-01-10T00:43:44.210Z,2.30
2019-01-10T00:46:27.640Z,2.00
2019-01-10T00:49:17.126Z,2.10
2019-01-10T00:52:06.937Z,2.13
2019-01-10T00:54:56.683Z,1.83
2019-01-10T00:57:46.216Z,1.73
2019-01-10T01:00:35.947Z,2.00
2019-01-10T01:03:25.741Z,2.33
2019-01-10T01:06:15.747Z,2.13
2019-01-10T01:12:37.301Z,1.70
2019-01-10T01:15:26.761Z,2.23
2019-01-10T01:18:16.513Z,2.40
2019-01-10T01:21:06.212Z,2.13
2019-01-10T01:23:55.699Z,2.00
2019-01-10T01:26:45.132Z,2.50
2019-01-10T01:29:34.602Z,2.43
2019-01-10T01:32:24.014Z,2.23
2019-01-10T01:35:14.288Z,2.53
2019-01-10T01:38:03.782Z,2.33
2019-01-10T01:40:53.820Z,2.20
2019-01-10T01:43:43.236Z,2.03
2019-01-10T01:46:25.971Z,1.90
2019-01-10T01:49:16.219Z,2.30
2019-01-10T01:52:05.790Z,2.00
2019-01-10T01:54:55.501Z,1.80
2019-01-10T01:57:45.222Z,2.10
2019-01-10T02:00:34.675Z,2.40
2019-01-10T02:03:24.117Z,2.37
2019-01-10T02:06:13.619Z,2.17
2019-01-10T02:09:03.873Z,2.30
2019-01-10T02:11:53.892Z,2.07
2019-01-10T02:14:43.348Z,1.90
2019-01-10T02:17:14.001Z,2.00
2019-01-10T02:20:04.293Z,2.23
2019-01-10T02:22:53.890Z,2.53
2019-01-10T02:25:43.326Z,2.03
2019-01-10T02:28:32.842Z,2.70
2019-01-10T02:31:22.725Z,2.07
2019-01-10T02:34:12.188Z,1.80
2019-01-10T02:37:01.640Z,2.30
2019-01-10T02:39:51.169Z,2.47
2019-01-10T02:42:40.985Z,1.97
2019-01-10T02:45:30.885Z,2.03
2019-01-10T02:48:13.147Z,2.30
2019-01-10T02:51:02.615Z,2.30
2019-01-10T02:53:52.335Z,2.23
2019-01-10T02:56:42.404Z,2.10
2019-01-10T02:59:31.858Z,2.13
2019-01-10T03:02:21.600Z,2.00
2019-01-10T03:05:11.658Z,2.30
2019-01-10T03:08:01.542Z,2.17
2019-01-10T03:10:51.066Z,2.07
2019-01-10T03:13:40.142Z,1.90
2019-01-10T03:16:30.245Z,2.40
2019-01-10T03:19:19.677Z,1.63
2019-01-10T03:22:09.272Z,1.80
2019-01-10T03:24:58.713Z,2.40
2019-01-10T03:27:48.226Z,2.80
2019-01-10T03:30:37.938Z,2.40
2019-01-10T03:33:27.411Z,2.23
2019-01-10T03:36:16.939Z,2.43
2019-01-10T03:39:47.990Z,2.80
2019-01-10T03:42:18.780Z,2.10
2019-01-10T03:45:10.734Z,2.30
2019-01-10T03:47:53.223Z,2.23
2019-01-10T03:50:43.011Z,2.43
2019-01-10T03:53:13.815Z,2.33
2019-01-10T03:56:03.270Z,2.20
2019-01-10T03:58:52.678Z,2.67
2019-01-10T04:01:42.494Z,2.40
2019-01-10T04:04:31.938Z,2.30
2019-01-10T04:07:21.397Z,2.37
2019-01-10T04:10:11.348Z,2.53
2019-01-10T04:13:00.824Z,2.40
2019-01-10T04:15:50.349Z,2.47
2019-01-10T04:18:39.838Z,2.30
2019-01-10T04:21:29.622Z,2.67
2019-01-10T04:24:19.060Z,2.40
2019-01-10T04:27:08.867Z,2.47
2019-01-10T04:29:58.372Z,2.43
2019-01-10T04:32:48.053Z,2.57
2019-01-10T04:35:37.763Z,2.67
2019-01-10T04:38:27.166Z,2.67
2019-01-10T04:40:57.775Z,2.93
2019-01-10T04:43:28.537Z,3.07
2019-01-10T04:46:17.993Z,3.00
2019-01-10T04:49:00.520Z,2.57
2019-01-10T04:51:49.943Z,2.70
2019-01-10T04:54:39.661Z,2.80
2019-01-10T04:57:29.358Z,2.87
2019-01-10T05:00:23.612Z,2.50
2019-01-10T05:03:13.098Z,2.53
2019-01-10T05:06:02.589Z,2.50
2019-01-10T05:08:33.252Z,2.73
2019-01-10T05:11:23.105Z,2.90
2019-01-10T05:14:16.639Z,2.90
2019-01-10T05:17:03.989Z,2.80
2019-01-10T05:19:55.831Z,3.13
2019-01-10T05:22:45.375Z,3.23
2019-01-10T05:25:34.957Z,2.80
2019-01-10T05:28:24.455Z,2.90
2019-01-10T05:31:13.933Z,2.80
2019-01-10T05:34:03.403Z,3.03
2019-01-10T05:36:52.908Z,2.60
2019-01-10T05:39:47.609Z,2.90
2019-01-10T05:42:34.314Z,3.27
2019-01-10T05:45:24.160Z,2.87
2019-01-10T05:48:06.951Z,3.00
2019-01-10T05:50:56.864Z,2.90
2019-01-10T05:53:46.316Z,3.20
2019-01-10T05:56:35.790Z,3.30
2019-01-10T05:59:25.528Z,3.13
2019-01-10T06:02:15.026Z,3.23
2019-01-10T06:08:19.998Z,3.30
2019-01-10T06:11:09.556Z,3.37
2019-01-10T06:13:59.033Z,3.23
2019-01-10T06:16:48.511Z,3.47
2019-01-10T06:19:37.986Z,3.13
2019-01-10T06:22:27.725Z,3.17
2019-01-10T06:25:17.193Z,3.40
2019-01-10T06:28:06.977Z,2.90
2019-01-10T06:30:56.440Z,3.67
2019-01-10T06:33:45.973Z,3.30
2019-01-10T06:36:35.441Z,3.53
2019-01-10T06:39:25.021Z,3.30
2019-01-10T06:42:14.479Z,2.50
2019-01-10T06:48:12.035Z,3.17
2019-01-10T06:51:01.502Z,3.47
2019-01-10T06:53:31.870Z,3.43
2019-01-10T06:56:02.280Z,3.80
2019-01-10T06:58:52.115Z,4.20
2019-01-10T07:01:41.903Z,3.87
2019-01-10T07:04:12.317Z,4.00
2019-01-10T07:07:01.769Z,3.77
2019-01-10T07:09:51.237Z,4.10
2019-01-10T07:12:40.722Z,3.73
2019-01-10T07:15:30.853Z,3.73
2019-01-10T07:18:01.444Z,4.07
2019-01-10T07:20:52.223Z,4.47
2019-01-10T07:23:23.264Z,4.67
2019-01-10T07:25:56.874Z,3.80
2019-01-10T07:28:46.340Z,3.67
2019-01-10T07:31:35.768Z,3.90
2019-01-10T07:34:25.301Z,4.27
2019-01-10T07:37:14.763Z,4.30
2019-01-10T07:40:05.506Z,4.47
2019-01-10T07:42:55.401Z,4.30
2019-01-10T07:45:45.119Z,4.20
2019-01-10T07:48:27.911Z,4.40
2019-01-10T07:51:17.435Z,3.93
2019-01-10T07:54:06.890Z,4.73
2019-01-10T07:56:56.557Z,4.73
2019-01-10T07:59:46.031Z,4.23
2019-01-10T08:02:16.420Z,4.60
2019-01-10T08:05:06.139Z,4.70
2019-01-10T08:07:55.652Z,15.43
2019-01-10T08:10:45.464Z,5.37
2019-01-10T08:13:34.975Z,5.00
2019-01-10T08:16:24.710Z,4.20
2019-01-10T08:19:14.215Z,4.67
2019-01-10T08:22:03.666Z,5.23
2019-01-10T08:24:53.244Z,5.23
2019-01-10T08:31:11.622Z,4.37
2019-01-10T08:34:01.045Z,4.50
2019-01-10T08:36:50.574Z,4.63
2019-01-10T08:39:40.041Z,4.70
2019-01-10T08:42:29.518Z,5.10
2019-01-10T08:45:21.980Z,4.73
2019-01-10T08:48:04.177Z,4.27
2019-01-10T08:50:53.632Z,5.57
2019-01-10T08:53:43.737Z,5.43
2019-01-10T08:56:33.233Z,4.77
2019-01-10T08:59:23.383Z,5.07
2019-01-10T09:02:12.960Z,4.77
2019-01-10T09:04:43.638Z,4.83
2019-01-10T09:07:14.334Z,4.87
2019-01-10T09:10:03.792Z,4.87
2019-01-10T09:12:53.254Z,4.90
2019-01-10T09:15:42.722Z,5.10
2019-01-10T09:18:32.163Z,4.83
2019-01-10T09:21:23.435Z,4.67
2019-01-10T09:24:12.787Z,4.60
2019-01-10T09:27:02.203Z,5.10
2019-01-10T09:29:51.600Z,5.27
2019-01-10T09:32:41.072Z,5.23
2019-01-10T09:35:30.914Z,5.40
2019-01-10T09:38:20.510Z,4.90
2019-01-10T09:41:09.960Z,5.20
2019-01-10T09:43:59.490Z,5.77
2019-01-10T09:46:48.943Z,5.97
2019-01-10T09:49:30.518Z,5.20
2019-01-10T09:52:20.071Z,5.57
2019-01-10T09:55:09.931Z,5.70
2019-01-10T09:57:59.376Z,5.10
2019-01-10T10:00:48.969Z,5.57
2019-01-10T10:03:38.491Z,5.30
2019-01-10T10:06:27.899Z,5.13
2019-01-10T10:09:17.408Z,5.60
2019-01-10T10:12:06.884Z,5.33
2019-01-10T10:14:56.721Z,5.13
2019-01-10T10:17:46.184Z,5.20
2019-01-10T10:20:35.627Z,5.63
2019-01-10T10:23:26.876Z,5.10
2019-01-10T10:26:16.624Z,5.13
2019-01-10T10:29:06.097Z,4.90
2019-01-10T10:31:55.910Z,5.10
2019-01-10T10:34:45.399Z,5.00
2019-01-10T10:37:34.876Z,4.87
2019-01-10T10:40:07.482Z,4.70
2019-01-10T10:42:56.914Z,5.03
2019-01-10T10:45:46.670Z,5.40
2019-01-10T10:48:36.153Z,5.10
2019-01-10T10:51:25.592Z,4.30
2019-01-10T10:54:15.094Z,5.43
2019-01-10T10:57:04.956Z,4.87
2019-01-10T10:59:54.695Z,4.83
2019-01-10T11:02:44.175Z,4.93
2019-01-10T11:05:33.651Z,5.47
2019-01-10T11:08:23.080Z,5.00
2019-01-10T11:11:12.586Z,4.40
2019-01-10T11:14:02.052Z,5.60
2019-01-10T11:16:32.757Z,5.53
2019-01-10T11:19:03.104Z,5.40
2019-01-10T11:21:52.607Z,5.37
2019-01-10T11:24:42.066Z,6.63
2019-01-10T11:27:31.848Z,6.40
2019-01-10T11:30:21.301Z,5.53
2019-01-10T11:33:11.177Z,4.90
2019-01-10T11:36:00.912Z,6.10
2019-01-10T11:38:50.368Z,5.93
2019-01-10T11:41:39.813Z,7.27
2019-01-10T11:44:29.293Z,6.77
2019-01-10T11:47:11.429Z,6.20
2019-01-10T11:49:53.991Z,9.17
2019-01-10T11:55:40.315Z,5.90
2019-01-10T11:58:29.770Z,10.67
2019-01-10T12:01:19.566Z,5.57
2019-01-10T12:04:09.471Z,4.87
2019-01-10T12:06:59.066Z,5.67
2019-01-10T12:09:48.886Z,5.27
2019-01-10T12:12:38.681Z,5.57
2019-01-10T12:15:28.191Z,5.17
2019-01-10T12:18:17.615Z,5.60
2019-01-10T12:20:48.424Z,5.47
2019-01-10T12:23:18.801Z,4.83
2019-01-10T12:26:08.981Z,4.97
2019-01-10T12:28:39.294Z,5.10
2019-01-10T12:31:09.608Z,4.97
2019-01-10T12:33:41.801Z,4.83
2019-01-10T12:36:31.116Z,4.90
2019-01-10T12:39:03.511Z,5.07
2019-01-10T12:41:53.024Z,4.90
2019-01-10T12:44:42.490Z,5.87
2019-01-10T12:47:12.898Z,4.87
2019-01-10T12:49:43.373Z,5.10
2019-01-10T12:52:34.855Z,5.27
2019-01-10T12:55:18.113Z,5.17
2019-01-10T12:58:08.414Z,5.30
2019-01-10T13:00:59.312Z,4.97
2019-01-10T13:03:48.752Z,4.23
2019-01-10T13:06:38.273Z,4.60
2019-01-10T13:09:27.728Z,4.60
2019-01-10T13:12:17.497Z,13.27
2019-01-10T13:15:09.415Z,17.87
2019-01-10T13:17:59.722Z,7.70
2019-01-10T13:20:49.523Z,4.97
2019-01-10T13:23:39.223Z,6.10
2019-01-10T13:26:28.727Z,5.47
2019-01-10T13:28:59.216Z,6.20
2019-01-10T13:31:48.630Z,6.30
2019-01-10T13:34:19.828Z,4.30
2019-01-10T13:37:09.516Z,4.90
2019-01-10T13:39:59.032Z,4.47
2019-01-10T13:42:56.441Z,4.80
2019-01-10T13:45:46.499Z,4.60
2019-01-10T13:51:47.578Z,4.80
2019-01-10T13:54:29.220Z,5.03
2019-01-10T13:57:18.741Z,5.23
2019-01-10T14:00:13.456Z,4.57
2019-01-10T14:03:02.930Z,4.97
2019-01-10T14:05:33.297Z,4.90
2019-01-10T14:08:22.834Z,4.27
2019-01-10T14:11:12.304Z,4.57
2019-01-10T14:14:01.925Z,4.87
2019-01-10T14:16:51.367Z,4.73
2019-01-10T14:19:41.634Z,3.93
2019-01-10T14:22:31.263Z,4.17
2019-01-10T14:25:20.901Z,4.20
2019-01-10T14:28:10.782Z,4.50
2019-01-10T14:31:00.501Z,4.77
2019-01-10T14:33:50.021Z,4.93
2019-01-10T14:36:39.757Z,4.37
2019-01-10T14:39:29.232Z,4.33
2019-01-10T14:42:18.749Z,4.80
2019-01-10T14:48:39.459Z,4.23
2019-01-10T14:51:20.074Z,3.87
2019-01-10T14:54:09.508Z,3.70
2019-01-10T14:56:39.904Z,4.00
2019-01-10T14:59:29.407Z,3.67
2019-01-10T15:02:19.114Z,3.90
2019-01-10T15:05:08.558Z,5.80
2019-01-10T15:07:58.654Z,5.67
2019-01-10T15:10:48.129Z,3.87
2019-01-10T15:13:37.570Z,3.97
2019-01-10T15:16:27.011Z,3.90
2019-01-10T15:19:16.565Z,3.40
2019-01-10T15:22:06.154Z,4.53
2019-01-10T15:24:55.661Z,4.17
2019-01-10T15:27:45.603Z,4.93
2019-01-10T15:30:35.485Z,4.37
2019-01-10T15:33:25.372Z,4.07
2019-01-10T15:36:14.819Z,3.90
2019-01-10T15:39:24.975Z,4.20
2019-01-10T15:42:14.399Z,3.90
2019-01-10T15:45:04.884Z,4.20
2019-01-10T15:47:55.213Z,4.43
2019-01-10T15:50:44.708Z,4.00
2019-01-10T15:53:27.022Z,4.10
2019-01-10T15:56:16.495Z,8.50
2019-01-10T15:59:05.942Z,4.70
2019-01-10T16:01:56.042Z,7.60
2019-01-10T16:04:45.793Z,6.77
2019-01-10T16:07:35.740Z,5.43
2019-01-10T16:10:25.197Z,6.63
2019-01-10T16:13:14.656Z,6.27
2019-01-10T16:16:04.139Z,5.20
2019-01-10T16:18:54.082Z,4.60
2019-01-10T16:21:43.934Z,4.60
2019-01-10T16:24:33.410Z,4.33
2019-01-10T16:27:22.869Z,4.37
2019-01-10T16:30:31.577Z,4.60
2019-01-10T16:33:21.380Z,4.70
2019-01-10T16:36:10.889Z,9.00
2019-01-10T16:39:00.747Z,5.50
2019-01-10T16:41:50.281Z,4.80
2019-01-10T16:44:39.712Z,5.63
2019-01-10T16:47:10.167Z,5.20
2019-01-10T16:49:40.605Z,5.43
2019-01-10T16:52:12.113Z,6.10
2019-01-10T16:55:01.608Z,5.37
2019-01-10T16:57:31.973Z,5.53
2019-01-10T17:00:28.665Z,4.97
2019-01-10T17:02:59.451Z,4.93
2019-01-10T17:05:49.475Z,5.43
2019-01-10T17:08:39.011Z,4.97
2019-01-10T17:11:28.490Z,5.23
2019-01-10T17:14:18.011Z,5.20
2019-01-10T17:17:07.705Z,5.73
2019-01-10T17:19:50.820Z,5.30
2019-01-10T17:22:40.700Z,4.63
2019-01-10T17:25:30.695Z,14.17
2019-01-10T17:28:20.196Z,6.50
2019-01-10T17:31:09.668Z,5.27
2019-01-10T17:33:59.339Z,5.60
2019-01-10T17:36:49.690Z,4.97
2019-01-10T17:39:20.482Z,5.47
2019-01-10T17:41:51.015Z,4.33
2019-01-10T17:44:40.598Z,5.83
2019-01-10T17:47:30.095Z,5.33
2019-01-10T17:50:19.701Z,5.13
2019-01-10T17:53:09.142Z,5.20
2019-01-10T17:55:39.454Z,6.97
2019-01-10T17:58:29.033Z,7.23
2019-01-10T18:01:18.431Z,5.77
2019-01-10T18:04:07.907Z,5.77
2019-01-10T18:06:57.314Z,7.40
2019-01-10T18:09:47.170Z,5.73
2019-01-10T18:12:36.612Z,5.60
2019-01-10T18:15:26.099Z,5.30
2019-01-10T18:18:15.593Z,5.77
2019-01-10T18:21:05.060Z,6.20
2019-01-10T18:23:54.536Z,5.43
2019-01-10T18:26:44.228Z,6.00
2019-01-10T18:29:14.606Z,6.27
2019-01-10T18:32:04.203Z,6.60
2019-01-10T18:34:53.828Z,6.67
2019-01-10T18:37:43.282Z,5.70
2019-01-10T18:40:32.720Z,5.87
2019-01-10T18:43:22.205Z,6.03
2019-01-10T18:46:11.666Z,6.17
2019-01-10T18:49:01.206Z,6.13
2019-01-10T18:51:50.220Z,5.60
2019-01-10T18:54:39.480Z,6.33
2019-01-10T18:57:28.862Z,5.73
2019-01-10T18:59:59.961Z,6.00
2019-01-10T19:02:49.558Z,6.10
2019-01-10T19:05:39.269Z,7.23
2019-01-10T19:08:28.783Z,6.23
2019-01-10T19:11:18.249Z,6.83
2019-01-10T19:13:48.569Z,6.20
2019-01-10T19:16:18.921Z,5.87
2019-01-10T19:18:50.279Z,6.70
2019-01-10T19:21:20.954Z,6.60
2019-01-10T19:23:51.731Z,7.10
2019-01-10T19:26:41.510Z,6.20
2019-01-10T19:29:31.555Z,6.60
2019-01-10T19:32:21.052Z,7.23
2019-01-10T19:35:10.479Z,6.53
2019-01-10T19:38:00.685Z,5.87
2019-01-10T19:40:50.149Z,6.83
2019-01-10T19:43:20.532Z,7.60
2019-01-10T19:46:09.958Z,5.87
2019-01-10T19:48:59.413Z,7.57
2019-01-10T19:51:41.956Z,6.77
2019-01-10T19:54:31.423Z,7.33
2019-01-10T19:57:02.012Z,6.73
2019-01-10T19:59:32.348Z,7.93
2019-01-10T20:02:03.424Z,8.30
2019-01-10T20:04:33.797Z,7.20
2019-01-10T20:07:23.206Z,8.37
2019-01-10T20:09:53.571Z,8.97
2019-01-10T20:12:23.898Z,8.73
2019-01-10T20:14:54.733Z,9.50
2019-01-10T20:17:44.682Z,10.47
2019-01-10T20:20:30.164Z,8.63
2019-01-10T20:23:32.523Z,9.20
2019-01-10T20:26:03.316Z,9.30
2019-01-10T20:28:33.986Z,7.20
2019-01-10T20:31:23.404Z,8.60
2019-01-10T20:34:12.830Z,8.80
2019-01-10T20:37:02.663Z,9.37
2019-01-10T20:39:52.118Z,10.20
2019-01-10T20:42:41.579Z,9.67
2019-01-10T20:45:31.366Z,11.93
2019-01-10T20:48:22.543Z,11.37
2019-01-10T20:50:53.665Z,11.83
2019-01-10T20:53:43.361Z,11.20
2019-01-10T20:56:32.844Z,11.23
2019-01-10T20:59:22.334Z,10.70
2019-01-10T21:02:11.840Z,9.93
2019-01-10T21:05:01.299Z,8.93
2019-01-10T21:07:50.858Z,8.77
2019-01-10T21:10:40.666Z,9.40
2019-01-10T21:13:30.105Z,8.63
2019-01-10T21:16:19.606Z,7.77
2019-01-10T21:19:09.046Z,7.17
2019-01-10T21:21:58.881Z,6.60
2019-01-10T21:24:48.359Z,6.30
2019-01-10T21:27:38.333Z,6.30
2019-01-10T21:30:27.752Z,6.67
2019-01-10T21:32:58.438Z,5.83
2019-01-10T21:35:48.137Z,5.93
2019-01-10T21:38:37.603Z,5.93
2019-01-10T21:41:27.051Z,5.57
2019-01-10T21:44:16.818Z,5.47
2019-01-10T21:47:06.658Z,6.30
2019-01-10T21:49:56.483Z,5.47
2019-01-10T21:52:45.944Z,5.87
2019-01-10T21:55:35.458Z,6.30
2019-01-10T21:58:25.297Z,6.37
2019-01-10T22:00:56.214Z,6.33
2019-01-10T22:03:46.367Z,6.60
2019-01-10T22:06:35.924Z,6.30
2019-01-10T22:09:25.407Z,6.10
2019-01-10T22:12:14.932Z,6.37
2019-01-10T22:18:19.947Z,6.40
2019-01-10T22:20:50.356Z,6.77
2019-01-10T22:23:20.797Z,6.47
2019-01-10T22:26:10.370Z,5.97
2019-01-10T22:28:59.841Z,6.60
2019-01-10T22:31:49.381Z,6.67
2019-01-10T22:34:39.164Z,7.03
2019-01-10T22:37:29.107Z,7.43
2019-01-10T22:40:21.320Z,7.07
2019-01-10T22:43:10.794Z,8.10
2019-01-10T22:46:00.223Z,7.97
2019-01-10T22:48:49.745Z,8.33
2019-01-10T22:51:32.007Z,8.33
2019-01-10T22:54:21.498Z,8.03
2019-01-10T22:57:11.178Z,8.23
2019-01-10T23:00:01.287Z,8.00
2019-01-10T23:03:11.314Z,8.20
2019-01-10T23:06:01.126Z,8.40
2019-01-10T23:08:50.718Z,7.40
2019-01-10T23:11:40.217Z,7.97
2019-01-10T23:14:29.713Z,7.97
2019-01-10T23:17:18.637Z,7.87
2019-01-10T23:20:07.540Z,8.27
2019-01-10T23:23:02.278Z,8.70
2019-01-10T23:25:54.342Z,8.37
2019-01-10T23:28:43.829Z,8.90
2019-01-10T23:31:33.263Z,9.03
2019-01-10T23:34:22.729Z,9.20
2019-01-10T23:37:12.172Z,9.63
2019-01-10T23:40:01.992Z,9.63
2019-01-10T23:42:51.722Z,10.70
2019-01-10T23:45:41.181Z,9.53
2019-01-10T23:48:30.693Z,9.67
2019-01-10T23:51:12.387Z,9.77
2019-01-10T23:54:01.843Z,10.37
2019-01-10T23:56:50.859Z,9.70
2019-01-10T23:59:40.324Z,8.60
